Time;durP1;ratioP1;P1;durP2;ratioP2;P2;SDS_P1;SDS_P2;PMS_P1;PMS_P2;Temp;Humidity;BMP_temperature;BMP_pressure;BME280_temperature;BME280_humidity;BME280_pressure;Samples;Min_cycle;Max_cycle;Signal;HPM_P1;HPM_P2
2022/01/22 00:01:56;;;;;;;32.15;4.22;;;6.60;99.90;;;;;;5027258;28;20053;-63
2022/01/22 00:04:22;;;;;;;32.75;4.03;;;6.60;99.90;;;;;;4993457;28;20400;-62
2022/01/22 00:06:51;;;;;;;30.35;3.33;;;6.60;99.90;;;;;;5025249;28;20452;-62
2022/01/22 00:09:18;;;;;;;21.48;2.95;;;6.60;99.90;;;;;;5007029;28;20068;-62
2022/01/22 00:11:52;;;;;;;23.95;3.13;;;6.60;99.90;;;;;;5024389;28;20049;-62
2022/01/22 00:14:24;;;;;;;27.70;3.20;;;6.60;99.90;;;;;;5023904;28;20207;-62
2022/01/22 00:16:51;;;;;;;26.83;3.60;;;6.60;99.90;;;;;;5010518;28;20048;-62
2022/01/22 00:19:17;;;;;;;27.13;3.25;;;6.60;99.90;;;;;;5025762;28;20485;-63
2022/01/22 00:21:43;;;;;;;21.67;2.70;;;6.60;99.90;;;;;;5025319;28;20463;-63
2022/01/22 00:24:11;;;;;;;33.58;3.28;;;6.60;99.90;;;;;;4995612;28;20052;-62
2022/01/22 00:26:37;;;;;;;29.63;3.03;;;6.50;99.90;;;;;;5012855;28;20536;-62
2022/01/22 00:29:03;;;;;;;23.10;3.05;;;6.60;99.90;;;;;;5026160;28;20171;-62
2022/01/22 00:31:29;;;;;;;23.52;3.22;;;6.60;99.90;;;;;;5023280;28;20048;-63
2022/01/22 00:33:55;;;;;;;24.50;3.40;;;6.50;99.90;;;;;;4996714;28;20123;-62
2022/01/22 00:36:21;;;;;;;30.98;3.30;;;6.50;99.90;;;;;;5028712;28;20052;-63
2022/01/22 00:38:46;;;;;;;35.85;3.75;;;6.60;99.90;;;;;;5028950;28;20439;-62
2022/01/22 00:41:12;;;;;;;22.95;3.28;;;6.50;99.90;;;;;;5029071;28;20500;-63
2022/01/22 00:43:38;;;;;;;21.50;2.70;;;6.60;99.90;;;;;;5024699;28;20048;-62
2022/01/22 00:46:04;;;;;;;19.85;2.78;;;6.60;99.90;;;;;;5027742;28;20110;-62
2022/01/22 00:48:30;;;;;;;18.52;2.55;;;6.60;99.90;;;;;;5027130;28;20049;-62
2022/01/22 00:50:57;;;;;;;16.63;2.42;;;6.60;99.90;;;;;;5009304;28;20118;-62
2022/01/22 00:53:26;;;;;;;18.10;2.72;;;6.60;99.90;;;;;;5025673;28;20524;-62
2022/01/22 00:55:52;;;;;;;20.27;2.67;;;6.60;99.90;;;;;;5022625;28;20046;-62
2022/01/22 00:58:18;;;;;;;18.02;2.60;;;6.60;99.90;;;;;;4996628;28;20117;-63
2022/01/22 01:00:44;;;;;;;23.65;2.97;;;6.60;99.90;;;;;;5021421;28;20092;-63
2022/01/22 01:03:10;;;;;;;22.17;2.70;;;6.60;99.90;;;;;;5012547;28;20124;-63
2022/01/22 01:05:36;;;;;;;21.73;2.42;;;6.60;99.90;;;;;;5027493;28;20045;-63
2022/01/22 01:08:03;;;;;;;28.38;3.05;;;6.60;99.90;;;;;;5009998;28;20202;-62
2022/01/22 01:10:30;;;;;;;21.92;2.78;;;6.60;99.90;;;;;;5026281;28;20049;-62
2022/01/22 01:12:56;;;;;;;23.63;2.60;;;6.60;99.90;;;;;;5021447;28;20053;-61
2022/01/22 01:15:53;;;;;;;25.00;2.85;;;6.70;99.90;;;;;;5037706;28;20048;-62
2022/01/22 01:32:18;;;;;;;15.80;2.38;;;6.50;99.90;;;;;;5024403;28;20045;-62
2022/01/22 01:34:45;;;;;;;16.58;2.80;;;6.60;99.90;;;;;;5010469;28;20045;-63
2022/01/22 01:37:17;;;;;;;15.00;2.08;;;6.60;99.90;;;;;;5020999;28;20049;-63
2022/01/22 01:39:46;;;;;;;11.88;2.00;;;6.60;99.90;;;;;;5010108;28;20123;-63
2022/01/22 01:42:43;;;;;;;16.60;1.90;;;6.60;99.90;;;;;;5006239;28;20148;-63
2022/01/22 01:45:04;;;;;;;8.85;1.63;;;6.60;99.90;;;;;;5019685;28;20067;-63
2022/01/22 01:47:30;;;;;;;19.83;1.70;;;6.60;99.90;;;;;;5022793;28;20677;-62
2022/01/22 01:49:56;;;;;;;17.08;2.08;;;6.60;99.90;;;;;;5007029;28;20050;-63
2022/01/22 01:52:31;;;;;;;17.55;2.00;;;6.60;99.90;;;;;;5025041;28;20450;-63
2022/01/22 01:55:09;;;;;;;14.00;1.95;;;6.60;99.90;;;;;;5028003;28;20041;-62
2022/01/22 01:57:39;;;;;;;15.05;1.92;;;6.50;99.90;;;;;;5039442;28;20049;-62
2022/01/22 02:00:16;;;;;;;15.63;2.78;;;6.50;99.90;;;;;;5021953;28;20388;-62
2022/01/22 02:02:43;;;;;;;18.13;2.42;;;6.60;99.90;;;;;;5022143;28;20156;-63
2022/01/22 02:05:11;;;;;;;9.98;1.80;;;6.50;99.90;;;;;;5021076;28;20044;-63
2022/01/22 02:07:39;;;;;;;13.55;2.00;;;6.50;99.90;;;;;;5024132;28;20107;-63
2022/01/22 02:10:08;;;;;;;15.93;1.83;;;6.50;99.90;;;;;;5008835;28;20385;-63
2022/01/22 02:25:58;;;;;;;11.23;2.10;;;6.40;99.90;;;;;;5012462;28;20085;-62
2022/01/22 02:28:24;;;;;;;20.77;2.38;;;6.40;99.90;;;;;;5022235;28;20055;-62
2022/01/22 02:30:56;;;;;;;11.35;2.08;;;6.40;99.90;;;;;;5026696;28;20773;-63
2022/01/22 02:33:36;;;;;;;10.50;1.80;;;6.40;99.90;;;;;;5039755;28;20098;-62
2022/01/22 02:36:14;;;;;;;17.92;2.10;;;6.40;99.90;;;;;;5014731;28;21013;-63
2022/01/22 02:38:56;;;;;;;13.90;1.83;;;6.40;99.90;;;;;;5013953;28;20049;-62
2022/01/22 02:41:24;;;;;;;13.83;2.00;;;6.40;99.90;;;;;;5022772;28;20084;-63
2022/01/22 02:43:53;;;;;;;13.35;2.20;;;6.40;99.90;;;;;;5022269;28;20069;-62
2022/01/22 02:46:23;;;;;;;18.60;2.85;;;6.40;99.90;;;;;;5027532;28;20439;-63
2022/01/22 02:48:49;;;;;;;12.50;2.67;;;6.40;99.90;;;;;;5024785;28;20521;-63
2022/01/22 02:51:15;;;;;;;17.15;2.80;;;6.40;99.90;;;;;;5014402;28;20066;-63
2022/01/22 02:53:40;;;;;;;11.45;2.05;;;6.40;99.90;;;;;;5028558;28;20190;-62
2022/01/22 02:56:07;;;;;;;12.65;2.17;;;6.50;99.90;;;;;;5026282;28;20060;-63
2022/01/22 02:58:33;;;;;;;12.30;1.73;;;6.40;99.90;;;;;;5028138;28;21035;-62
2022/01/22 03:00:59;;;;;;;8.88;1.40;;;6.30;99.90;;;;;;5009307;28;20049;-62
2022/01/22 03:03:25;;;;;;;10.68;1.85;;;6.30;99.90;;;;;;5029900;28;20045;-62
2022/01/22 03:05:53;;;;;;;14.20;2.08;;;6.40;99.90;;;;;;5009928;28;20484;-62
2022/01/22 03:08:20;;;;;;;11.27;1.40;;;6.30;99.90;;;;;;5027637;28;20049;-62
2022/01/22 03:10:51;;;;;;;11.35;1.60;;;6.30;99.90;;;;;;5024031;28;20053;-62
2022/01/22 03:16:15;;;;;;;8.82;1.42;;;6.40;99.90;;;;;;5016742;28;20159;-63
2022/01/22 03:18:51;;;;;;;11.45;1.65;;;6.40;99.90;;;;;;5011586;28;20140;-63
2022/01/22 03:29:19;;;;;;;10.15;1.60;;;6.40;99.90;;;;;;5027600;28;20087;-62
2022/01/22 03:31:46;;;;;;;15.57;2.00;;;6.30;99.90;;;;;;5012424;28;20080;-63
2022/01/22 03:34:12;;;;;;;15.68;2.20;;;6.30;99.90;;;;;;5028924;28;20085;-62
2022/01/22 03:36:39;;;;;;;18.27;2.53;;;6.40;99.90;;;;;;5025495;28;20041;-62
2022/01/22 03:39:07;;;;;;;14.55;1.83;;;6.30;99.90;;;;;;5026877;28;20191;-63
2022/01/22 03:41:35;;;;;;;12.32;1.80;;;6.40;99.90;;;;;;5029900;28;20053;-62
2022/01/22 03:44:04;;;;;;;11.35;1.70;;;6.30;99.90;;;;;;5029301;28;20343;-63
2022/01/22 03:46:30;;;;;;;10.18;1.63;;;6.40;99.90;;;;;;5022863;28;20045;-63
2022/01/22 03:48:55;;;;;;;12.55;1.60;;;6.30;99.90;;;;;;5013374;28;20100;-62
2022/01/22 03:51:21;;;;;;;12.45;1.60;;;6.30;99.90;;;;;;5029386;28;20124;-63
2022/01/22 03:53:47;;;;;;;13.48;1.60;;;6.30;99.90;;;;;;5025294;28;20463;-62
2022/01/22 03:56:14;;;;;;;16.48;1.85;;;6.40;99.90;;;;;;5009318;28;20454;-62
2022/01/22 03:58:42;;;;;;;8.18;1.85;;;6.30;99.90;;;;;;5027702;28;20068;-63
2022/01/22 04:04:00;;;;;;;20.95;2.25;;;6.40;99.90;;;;;;5028289;28;20110;-63
2022/01/22 04:07:00;;;;;;;12.70;2.10;;;6.40;99.90;;;;;;4994124;28;20098;-62
2022/01/22 04:09:17;;;;;;;16.73;1.80;;;6.40;99.90;;;;;;5025539;28;20522;-62
2022/01/22 04:11:45;;;;;;;12.75;1.92;;;6.30;99.90;;;;;;4996624;28;20562;-63
2022/01/22 04:14:24;;;;;;;9.85;1.52;;;6.30;99.90;;;;;;5026205;28;20497;-63
2022/01/22 04:24:55;;;;;;;10.27;1.52;;;6.30;99.90;;;;;;5025331;28;20056;-63
2022/01/22 04:27:27;;;;;;;7.47;1.90;;;6.30;99.90;;;;;;5025764;28;20327;-63
2022/01/22 04:29:57;;;;;;;13.32;1.50;;;6.30;99.90;;;;;;5011684;28;20044;-62
2022/01/22 04:32:24;;;;;;;7.32;1.17;;;6.30;99.90;;;;;;5011840;28;20045;-63
2022/01/22 04:34:50;;;;;;;7.32;1.30;;;6.30;99.90;;;;;;5022826;28;20725;-63
2022/01/22 04:37:20;;;;;;;8.23;1.10;;;6.30;99.90;;;;;;5024186;28;20373;-62
2022/01/22 04:39:47;;;;;;;3.55;0.90;;;6.30;99.90;;;;;;5021316;28;20041;-62
2022/01/22 04:42:17;;;;;;;9.60;1.40;;;6.30;99.90;;;;;;5025887;28;20574;-63
2022/01/22 04:47:46;;;;;;;10.65;1.77;;;6.20;99.90;;;;;;4992874;28;20524;-63
2022/01/22 04:55:38;;;;;;;17.05;1.92;;;6.30;99.90;;;;;;5006211;28;20067;-63
2022/01/22 04:58:05;;;;;;;13.57;2.30;;;6.30;99.90;;;;;;5025817;28;20061;-63
2022/01/22 05:00:36;;;;;;;12.05;1.42;;;6.30;99.90;;;;;;5020405;28;20094;-62
2022/01/22 05:03:03;;;;;;;8.05;1.50;;;6.30;99.90;;;;;;5008718;28;20328;-64
2022/01/22 05:05:30;;;;;;;14.88;1.80;;;6.30;99.90;;;;;;5038976;28;20530;-62
2022/01/22 05:07:56;;;;;;;12.82;2.25;;;6.30;99.90;;;;;;5025720;28;20045;-62
2022/01/22 05:10:22;;;;;;;12.73;1.95;;;6.30;99.90;;;;;;5021366;28;20049;-62
2022/01/22 05:12:49;;;;;;;14.50;2.47;;;6.30;99.90;;;;;;5021781;28;20557;-62
2022/01/22 05:15:16;;;;;;;16.10;2.20;;;6.30;99.90;;;;;;5008185;28;20049;-64
2022/01/22 05:17:44;;;;;;;10.10;1.98;;;6.30;99.90;;;;;;5024405;28;20049;-63
2022/01/22 05:20:28;;;;;;;14.38;1.77;;;6.30;99.90;;;;;;5022514;28;20131;-62
2022/01/22 05:23:03;;;;;;;11.98;2.58;;;6.30;99.90;;;;;;5025809;28;20081;-64
2022/01/22 05:25:35;;;;;;;12.77;2.10;;;6.30;99.90;;;;;;5022812;28;20045;-63
2022/01/22 05:33:27;;;;;;;15.77;1.75;;;6.30;99.90;;;;;;5024790;28;20045;-63
2022/01/22 05:38:35;;;;;;;16.23;2.05;;;6.30;99.90;;;;;;5022548;28;20055;-63
2022/01/22 05:41:01;;;;;;;17.23;1.75;;;6.20;99.90;;;;;;5025284;28;20056;-63
2022/01/22 05:43:27;;;;;;;15.07;1.85;;;6.30;99.90;;;;;;5023779;28;20345;-62
2022/01/22 05:45:53;;;;;;;12.13;2.00;;;6.20;99.90;;;;;;5011559;28;20109;-63
2022/01/22 05:48:19;;;;;;;17.10;2.20;;;6.20;99.90;;;;;;5022700;28;20514;-63
2022/01/22 06:01:15;;;;;;;10.48;1.85;;;6.20;99.90;;;;;;5029732;28;20049;-63
2022/01/22 06:03:42;;;;;;;19.02;2.30;;;6.20;99.90;;;;;;5025144;28;20041;-63
2022/01/22 06:06:09;;;;;;;14.85;2.22;;;6.20;99.90;;;;;;5025639;28;20088;-63
2022/01/22 06:08:41;;;;;;;11.98;1.85;;;6.20;99.90;;;;;;5018081;28;20103;-62
2022/01/22 06:11:09;;;;;;;11.68;2.13;;;6.20;99.90;;;;;;5031549;28;20076;-63
2022/01/22 06:13:46;;;;;;;15.32;2.63;;;6.20;99.90;;;;;;5023820;28;20581;-63
2022/01/22 06:16:14;;;;;;;16.83;1.92;;;6.20;99.90;;;;;;5030422;28;20052;-62
2022/01/22 06:18:40;;;;;;;22.92;2.75;;;6.20;99.90;;;;;;5016464;28;20132;-63
2022/01/22 06:21:08;;;;;;;14.55;2.20;;;6.30;99.90;;;;;;5026883;28;20163;-63
2022/01/22 06:23:36;;;;;;;17.10;2.15;;;6.30;99.90;;;;;;5025166;28;20045;-63
2022/01/22 06:26:02;;;;;;;12.15;1.70;;;6.30;99.90;;;;;;5028693;28;20053;-63
2022/01/22 06:28:28;;;;;;;16.73;2.20;;;6.20;99.90;;;;;;5030936;28;20091;-63
2022/01/22 06:30:55;;;;;;;12.40;1.80;;;6.20;99.90;;;;;;5002124;28;20555;-63
2022/01/22 06:33:21;;;;;;;11.98;1.85;;;6.30;99.90;;;;;;5041581;28;20056;-63
2022/01/22 06:35:47;;;;;;;8.10;1.67;;;6.20;99.90;;;;;;5029286;28;20052;-62
2022/01/22 06:38:13;;;;;;;7.45;1.30;;;6.20;99.90;;;;;;5026412;28;20050;-63
2022/01/22 06:43:05;;;;;;;10.65;1.75;;;6.10;99.90;;;;;;5025974;28;20492;-63
2022/01/22 06:45:31;;;;;;;7.93;1.60;;;6.20;99.90;;;;;;5040111;28;20136;-63
2022/01/22 06:47:58;;;;;;;6.90;1.42;;;6.30;99.90;;;;;;4998593;28;20480;-63
2022/01/22 06:50:24;;;;;;;11.35;1.50;;;6.20;99.90;;;;;;5016196;28;20057;-62
2022/01/22 06:52:56;;;;;;;11.68;1.45;;;6.20;99.90;;;;;;5018952;28;20107;-64
2022/01/22 06:56:02;;;;;;;13.18;1.70;;;6.20;99.90;;;;;;5015342;28;20056;-62
2022/01/22 06:58:19;;;;;;;13.68;1.60;;;6.10;99.90;;;;;;5020343;28;20069;-62
2022/01/22 07:00:45;;;;;;;8.18;1.40;;;6.20;99.90;;;;;;5017481;28;20367;-64
2022/01/22 07:03:11;;;;;;;7.60;1.75;;;6.10;99.90;;;;;;5029894;28;20514;-63
2022/01/22 07:05:37;;;;;;;6.55;1.63;;;6.10;99.90;;;;;;5022352;28;20049;-63
2022/01/22 07:08:03;;;;;;;9.27;1.83;;;6.10;99.90;;;;;;5031167;28;20083;-63
2022/01/22 07:10:30;;;;;;;8.77;1.65;;;6.10;99.90;;;;;;5022471;28;20180;-62
2022/01/22 07:12:56;;;;;;;5.15;1.55;;;6.10;99.90;;;;;;5031630;28;20049;-63
2022/01/22 07:15:22;;;;;;;6.43;1.52;;;6.20;99.90;;;;;;5019496;28;20059;-63
2022/01/22 07:17:48;;;;;;;7.78;1.80;;;6.10;99.90;;;;;;5035186;28;20131;-62
2022/01/22 07:20:17;;;;;;;11.30;2.10;;;6.10;99.90;;;;;;5031452;28;20052;-63
2022/01/22 07:22:52;;;;;;;7.22;2.03;;;6.10;99.90;;;;;;5012554;28;20049;-62
2022/01/22 07:25:18;;;;;;;11.15;2.10;;;6.10;99.90;;;;;;5016625;28;20051;-63
2022/01/22 07:27:45;;;;;;;14.05;2.30;;;6.10;99.90;;;;;;5015757;28;20166;-63
2022/01/22 07:30:12;;;;;;;12.93;2.20;;;6.10;99.90;;;;;;5021968;28;22034;-63
2022/01/22 07:32:42;;;;;;;10.70;2.58;;;6.10;99.90;;;;;;5019846;28;20049;-63
2022/01/22 07:35:10;;;;;;;11.13;1.85;;;6.00;99.90;;;;;;5026002;28;20633;-63
2022/01/22 07:37:36;;;;;;;22.05;2.10;;;6.00;99.90;;;;;;5046454;28;20072;-63
2022/01/22 07:40:10;;;;;;;9.82;1.63;;;6.00;99.90;;;;;;5034774;28;20049;-63
2022/01/22 07:42:37;;;;;;;6.18;1.63;;;6.00;99.90;;;;;;5035435;28;20045;-63
2022/01/22 07:45:04;;;;;;;5.97;1.67;;;6.00;99.90;;;;;;5012008;28;20046;-64
2022/01/22 07:47:30;;;;;;;5.72;1.83;;;6.00;99.90;;;;;;5013539;28;20048;-62
2022/01/22 07:49:56;;;;;;;9.13;1.75;;;6.00;99.90;;;;;;5033164;28;20052;-63
2022/01/22 07:52:23;;;;;;;9.48;1.70;;;6.00;99.90;;;;;;5028317;28;20563;-63
2022/01/22 07:54:49;;;;;;;6.55;1.85;;;6.00;99.90;;;;;;5017375;28;20091;-62
2022/01/22 07:57:15;;;;;;;7.43;1.60;;;6.00;99.90;;;;;;5022307;28;20069;-63
2022/01/22 07:59:41;;;;;;;6.28;1.40;;;6.00;99.90;;;;;;5026668;28;20045;-63
2022/01/22 08:02:07;;;;;;;7.07;1.63;;;5.90;99.90;;;;;;5028893;28;20080;-62
2022/01/22 08:04:34;;;;;;;8.55;1.50;;;6.00;99.90;;;;;;5035224;28;20089;-62
2022/01/22 08:07:00;;;;;;;10.02;1.48;;;6.00;99.90;;;;;;5033538;28;20056;-63
2022/01/22 08:09:27;;;;;;;7.75;1.67;;;6.00;99.90;;;;;;5050321;28;20507;-63
2022/01/22 08:11:52;;;;;;;9.23;1.67;;;6.00;99.90;;;;;;5023697;28;20059;-62
2022/01/22 08:14:18;;;;;;;5.20;1.10;;;5.90;99.90;;;;;;5028409;28;20045;-64
2022/01/22 08:16:46;;;;;;;7.15;1.35;;;6.00;99.90;;;;;;5002057;28;20101;-62
2022/01/22 08:19:13;;;;;;;9.13;1.35;;;6.00;99.90;;;;;;5014627;28;20052;-63
2022/01/22 08:21:39;;;;;;;9.45;1.27;;;6.00;99.90;;;;;;5035066;28;20041;-63
2022/01/22 08:24:06;;;;;;;10.90;1.60;;;6.00;99.90;;;;;;5024272;28;20563;-63
2022/01/22 08:26:36;;;;;;;7.13;1.25;;;6.00;99.90;;;;;;5002691;28;20053;-63
2022/01/22 08:29:03;;;;;;;7.25;1.45;;;6.00;99.90;;;;;;5034317;28;20559;-63
2022/01/22 08:36:45;;;;;;;8.18;1.48;;;6.00;99.90;;;;;;5038026;28;20056;-63
2022/01/22 08:39:13;;;;;;;10.35;1.90;;;6.00;99.90;;;;;;5030346;28;20052;-63
2022/01/22 08:41:38;;;;;;;11.40;1.80;;;6.00;99.90;;;;;;5019823;28;20045;-63
2022/01/22 08:44:05;;;;;;;9.18;1.73;;;6.00;99.90;;;;;;4998755;28;20071;-63
2022/01/22 08:46:34;;;;;;;10.75;1.65;;;6.10;99.90;;;;;;5022791;28;20483;-63
2022/01/22 08:49:00;;;;;;;8.50;1.67;;;6.10;99.90;;;;;;5026270;28;20076;-63
2022/01/22 08:51:27;;;;;;;9.63;1.42;;;6.10;99.90;;;;;;5011071;28;20040;-62
2022/01/22 08:53:55;;;;;;;16.92;1.85;;;6.10;99.90;;;;;;5027257;28;20057;-63
2022/01/22 08:56:21;;;;;;;13.90;2.20;;;6.10;99.90;;;;;;5001060;28;20056;-62
2022/01/22 08:58:47;;;;;;;8.85;1.48;;;6.10;99.90;;;;;;5021428;28;20065;-62
2022/01/22 09:01:13;;;;;;;7.78;1.40;;;6.10;99.90;;;;;;5027344;28;20526;-63
2022/01/22 09:03:39;;;;;;;7.25;1.42;;;6.20;99.90;;;;;;5018134;28;20052;-62
2022/01/22 09:06:06;;;;;;;6.97;1.50;;;6.10;99.90;;;;;;5026529;28;20041;-62
2022/01/22 09:08:32;;;;;;;6.82;1.90;;;6.10;99.90;;;;;;5036710;28;20606;-63
2022/01/22 09:10:58;;;;;;;11.70;1.60;;;6.10;99.90;;;;;;5027793;28;20056;-62
2022/01/22 09:13:25;;;;;;;9.38;1.67;;;6.20;99.90;;;;;;5001985;28;20060;-63
2022/01/22 09:15:53;;;;;;;11.40;1.40;;;6.20;99.90;;;;;;5024674;28;20175;-63
2022/01/22 09:18:20;;;;;;;6.53;1.38;;;6.20;99.90;;;;;;5012670;28;20119;-64
2022/01/22 09:23:15;;;;;;;8.52;1.85;;;6.20;99.90;;;;;;5029865;28;20051;-63
2022/01/22 09:25:42;;;;;;;5.93;1.98;;;6.20;99.90;;;;;;5012522;28;20084;-63
2022/01/22 09:28:11;;;;;;;15.32;2.08;;;6.20;99.90;;;;;;5030368;28;20044;-63
2022/01/22 09:30:37;;;;;;;10.02;1.65;;;6.30;99.90;;;;;;5031199;28;20112;-63
2022/01/22 09:33:03;;;;;;;7.95;1.65;;;6.20;99.90;;;;;;4994540;28;20057;-63
2022/01/22 09:35:29;;;;;;;10.65;2.10;;;6.20;99.90;;;;;;5026328;28;20408;-62
2022/01/22 09:37:55;;;;;;;10.90;2.55;;;6.30;99.90;;;;;;5031245;28;20056;-63
2022/01/22 09:40:21;;;;;;;9.27;1.83;;;6.30;99.90;;;;;;5034119;28;20045;-62
2022/01/22 09:42:47;;;;;;;7.63;1.73;;;6.30;99.90;;;;;;5034022;28;20049;-63
2022/01/22 09:45:13;;;;;;;9.27;1.98;;;6.30;99.90;;;;;;5022003;28;20049;-63
2022/01/22 09:47:46;;;;;;;12.57;2.05;;;6.30;99.90;;;;;;5034230;28;20041;-63
2022/01/22 09:50:12;;;;;;;11.82;1.90;;;6.30;99.90;;;;;;5031687;28;20045;-63
2022/01/22 09:52:39;;;;;;;15.48;2.25;;;6.30;99.90;;;;;;5018239;28;20041;-63
2022/01/22 09:55:06;;;;;;;11.48;2.38;;;6.40;99.90;;;;;;5035228;28;20048;-63
2022/01/22 09:57:34;;;;;;;11.52;2.15;;;6.30;99.90;;;;;;5017295;28;20126;-63
2022/01/22 10:00:00;;;;;;;9.20;2.20;;;6.30;99.90;;;;;;5033130;28;20041;-63
2022/01/22 10:02:27;;;;;;;12.15;2.00;;;6.40;99.90;;;;;;5024498;28;20057;-63
2022/01/22 10:04:52;;;;;;;8.73;1.70;;;6.40;99.90;;;;;;5014621;28;20052;-63
2022/01/22 10:07:21;;;;;;;10.68;1.77;;;6.40;99.90;;;;;;5031758;28;20046;-63
2022/01/22 10:10:16;;;;;;;7.28;1.60;;;6.40;99.90;;;;;;5030954;28;20049;-64
2022/01/22 10:12:44;;;;;;;8.45;1.70;;;6.50;99.90;;;;;;4996961;28;20091;-63
2022/01/22 10:15:15;;;;;;;8.02;1.42;;;6.50;99.90;;;;;;5021321;28;20140;-63
2022/01/22 10:17:48;;;;;;;10.82;1.70;;;6.50;99.90;;;;;;5029907;28;20053;-62
2022/01/22 10:20:29;;;;;;;10.00;2.20;;;6.50;99.90;;;;;;5020987;28;20119;-63
2022/01/22 10:23:09;;;;;;;8.95;1.75;;;6.50;99.90;;;;;;5031757;28;20494;-63
2022/01/22 10:25:45;;;;;;;7.10;1.88;;;6.60;99.90;;;;;;5021790;28;20067;-63
2022/01/22 10:28:18;;;;;;;9.57;2.40;;;6.60;99.90;;;;;;5040389;28;20040;-63
2022/01/22 10:30:46;;;;;;;8.18;1.75;;;6.60;99.90;;;;;;5034677;28;20053;-63
2022/01/22 10:33:35;;;;;;;7.18;1.98;;;6.60;99.90;;;;;;5012652;28;20419;-63
2022/01/22 10:36:17;;;;;;;8.63;1.90;;;6.60;99.90;;;;;;5044066;28;20049;-63
2022/01/22 10:38:52;;;;;;;7.68;2.22;;;6.60;99.90;;;;;;5033276;28;20065;-63
2022/01/22 10:41:36;;;;;;;11.73;1.92;;;6.60;99.90;;;;;;5036471;28;20560;-63
2022/01/22 10:44:04;;;;;;;11.02;1.90;;;6.60;99.90;;;;;;5029328;28;20092;-63
2022/01/22 10:46:44;;;;;;;11.30;2.40;;;6.60;99.90;;;;;;5026456;28;20538;-63
2022/01/22 10:49:24;;;;;;;11.65;2.35;;;6.60;99.90;;;;;;5031365;28;20049;-62
2022/01/22 10:51:57;;;;;;;5.95;2.20;;;6.60;99.90;;;;;;5027670;28;20064;-62
2022/01/22 10:54:24;;;;;;;;;;;6.60;99.90;;;;;;5030370;28;20056;-63
2022/01/22 10:56:50;;;;;;;12.68;2.33;;;6.60;99.90;;;;;;5030599;28;20388;-64
2022/01/22 10:59:18;;;;;;;11.88;2.33;;;6.60;99.90;;;;;;5023262;28;20048;-64
2022/01/22 11:01:55;;;;;;;18.75;2.65;;;6.60;99.90;;;;;;5008497;28;20772;-63
2022/01/22 11:04:34;;;;;;;9.40;2.55;;;6.60;99.90;;;;;;5027941;28;20088;-63
2022/01/22 11:07:15;;;;;;;7.47;1.83;;;6.70;99.90;;;;;;5050732;28;20045;-63
2022/01/22 11:09:41;;;;;;;12.63;2.35;;;6.70;99.90;;;;;;5017979;28;20048;-63
2022/01/22 11:12:08;;;;;;;8.15;2.25;;;6.60;99.90;;;;;;5032620;28;20111;-63
2022/01/22 11:14:37;;;;;;;10.68;2.70;;;6.70;99.90;;;;;;5033846;28;20384;-63
2022/01/22 11:17:03;;;;;;;9.07;2.47;;;6.70;99.90;;;;;;5036580;28;20059;-62
2022/01/22 11:19:32;;;;;;;9.73;3.00;;;6.70;99.90;;;;;;5034202;28;20412;-63
2022/01/22 11:22:10;;;;;;;10.57;2.40;;;6.70;99.90;;;;;;5039216;28;20056;-63
2022/01/22 11:24:44;;;;;;;11.82;2.95;;;6.70;99.90;;;;;;5051114;28;20116;-63
2022/01/22 11:27:13;;;;;;;13.20;2.75;;;6.70;99.90;;;;;;5015120;28;20407;-63
2022/01/22 11:29:49;;;;;;;8.32;2.72;;;6.70;99.90;;;;;;5033819;28;20407;-63
2022/01/22 11:32:19;;;;;;;14.73;3.53;;;6.70;99.90;;;;;;5032242;28;20094;-62
2022/01/22 11:34:47;;;;;;;13.32;2.70;;;6.70;99.90;;;;;;5022731;28;20040;-62
2022/01/22 11:37:24;;;;;;;11.52;2.78;;;6.70;99.90;;;;;;5034915;28;20076;-62
2022/01/22 11:40:16;;;;;;;12.23;2.95;;;6.70;99.90;;;;;;5036633;28;20071;-63
2022/01/22 11:43:10;;;;;;;15.30;2.90;;;6.70;99.90;;;;;;5031821;28;20125;-63
2022/01/22 11:45:42;;;;;;;20.15;3.75;;;6.70;99.90;;;;;;5035498;28;20072;-63
2022/01/22 11:48:27;;;;;;;14.10;2.95;;;6.70;99.90;;;;;;5028097;28;20048;-63
2022/01/22 11:50:54;;;;;;;15.55;2.92;;;6.70;99.90;;;;;;5025936;28;20131;-63
2022/01/22 11:53:29;;;;;;;13.02;3.30;;;6.70;99.90;;;;;;5020094;28;20418;-63
2022/01/22 11:56:10;;;;;;;14.10;3.45;;;6.70;99.90;;;;;;5037252;28;20628;-63
2022/01/22 11:59:02;;;;;;;13.68;3.20;;;6.70;99.90;;;;;;5025528;28;20602;-63
2022/01/22 12:01:50;;;;;;;16.20;3.83;;;6.70;99.90;;;;;;5017906;28;20049;-63
2022/01/22 12:04:27;;;;;;;18.73;3.33;;;6.70;99.90;;;;;;5023085;28;20123;-64
2022/01/22 12:07:02;;;;;;;28.20;4.38;;;6.70;99.90;;;;;;5031638;28;20606;-62
2022/01/22 12:09:32;;;;;;;18.08;4.00;;;6.60;99.90;;;;;;5024258;28;20041;-63
2022/01/22 12:15:04;;;;;;;16.30;4.07;;;6.70;99.90;;;;;;5025504;28;20130;-63
2022/01/22 12:18:01;;;;;;;18.95;5.40;;;6.70;99.90;;;;;;5013862;28;20908;-63
2022/01/22 12:23:09;;;;;;;23.67;4.80;;;6.80;99.90;;;;;;5020052;28;20085;-63
2022/01/22 12:25:34;;;;;;;20.77;5.47;;;6.70;99.90;;;;;;5024135;28;20055;-64
2022/01/22 12:28:02;;;;;;;16.88;5.15;;;6.70;99.90;;;;;;5027562;28;20415;-63
2022/01/22 12:30:39;;;;;;;10.95;4.80;;;6.80;99.90;;;;;;5032719;28;20554;-63
2022/01/22 12:33:12;;;;;;;19.30;5.32;;;6.80;99.90;;;;;;5027255;28;20045;-63
2022/01/22 12:35:44;;;;;;;18.40;5.43;;;6.80;99.90;;;;;;5024352;28;20049;-64
2022/01/22 12:44:12;;;;;;;17.98;5.97;;;6.80;99.90;;;;;;5017678;28;20049;-66
2022/01/22 12:46:38;;;;;;;20.25;4.85;;;6.80;99.90;;;;;;5038090;28;20052;-66
2022/01/22 12:49:06;;;;;;;19.23;5.10;;;6.80;99.90;;;;;;5029669;28;20098;-65
2022/01/22 12:51:33;;;;;;;17.25;4.60;;;6.80;99.90;;;;;;5028225;28;20136;-65
2022/01/22 12:53:59;;;;;;;18.65;4.38;;;6.90;99.90;;;;;;5029378;28;20507;-66
2022/01/22 12:59:05;;;;;;;13.23;3.60;;;6.90;99.90;;;;;;5026513;28;20068;-66
2022/01/22 13:01:34;;;;;;;11.85;3.67;;;6.90;99.90;;;;;;5034530;28;20427;-66
2022/01/22 13:04:03;;;;;;;14.88;3.60;;;6.80;99.90;;;;;;5013665;28;20099;-66
2022/01/22 13:06:47;;;;;;;17.20;3.70;;;6.90;99.90;;;;;;5029176;28;20547;-66
2022/01/22 13:09:14;;;;;;;14.13;3.83;;;6.80;99.90;;;;;;5047260;28;20454;-66
2022/01/22 13:11:47;;;;;;;15.15;3.85;;;6.80;99.90;;;;;;5010596;28;20056;-65
2022/01/22 13:14:17;;;;;;;12.85;3.65;;;6.80;99.90;;;;;;5031920;28;20053;-65
2022/01/22 13:16:51;;;;;;;12.35;4.10;;;6.70;99.90;;;;;;5025756;28;20076;-65
2022/01/22 13:19:19;;;;;;;11.95;3.22;;;6.80;99.90;;;;;;5031569;28;20632;-65
2022/01/22 13:22:02;;;;;;;15.07;3.40;;;6.80;99.90;;;;;;5017533;28;20507;-65
2022/01/22 13:24:29;;;;;;;11.23;3.25;;;6.80;99.90;;;;;;5011537;28;20392;-66
2022/01/22 13:29:33;;;;;;;11.23;2.50;;;6.80;99.90;;;;;;5032357;28;20041;-65
2022/01/22 13:49:17;;;;;;;20.38;3.13;;;6.60;99.90;;;;;;5024917;28;20045;-65
2022/01/22 13:51:44;;;;;;;20.27;2.92;;;6.60;99.90;;;;;;5029545;28;20057;-66
2022/01/22 13:54:10;;;;;;;18.88;3.08;;;6.60;99.90;;;;;;5031155;28;20122;-65
2022/01/22 13:56:54;;;;;;;18.90;3.40;;;6.60;99.90;;;;;;5024433;28;20058;-65
2022/01/22 13:59:23;;;;;;;13.82;3.17;;;6.70;99.90;;;;;;5025463;28;20057;-66
2022/01/22 14:04:16;;;;;;;15.38;2.90;;;6.60;99.90;;;;;;5008488;28;20048;-65
2022/01/22 14:06:43;;;;;;;13.27;2.60;;;6.60;99.90;;;;;;5027746;28;20503;-65
2022/01/22 14:09:20;;;;;;;11.32;2.58;;;6.60;99.90;;;;;;5027689;28;20427;-65
2022/01/22 14:12:14;;;;;;;7.00;1.80;;;6.60;99.90;;;;;;5039310;28;20126;-66
2022/01/22 14:15:11;;;;;;;12.02;2.10;;;6.60;99.90;;;;;;5032739;28;20049;-65
2022/01/22 14:20:41;;;;;;;11.65;2.03;;;6.60;99.90;;;;;;5008605;28;20467;-66
2022/01/22 14:23:19;;;;;;;13.18;2.28;;;6.60;99.90;;;;;;5029589;28;20464;-66
2022/01/22 14:25:59;;;;;;;9.40;1.88;;;6.50;99.90;;;;;;5036008;28;20094;-66
2022/01/22 14:28:47;;;;;;;13.20;2.88;;;6.60;99.90;;;;;;5023855;28;20501;-66
2022/01/22 14:31:26;;;;;;;9.70;2.03;;;6.50;99.90;;;;;;5030557;28;20730;-65
2022/01/22 14:33:54;;;;;;;10.80;1.98;;;6.50;99.90;;;;;;5022730;28;20091;-66
2022/01/22 14:36:23;;;;;;;9.48;2.15;;;6.50;99.90;;;;;;5031161;28;20049;-66
2022/01/22 14:38:55;;;;;;;10.25;2.17;;;6.50;99.90;;;;;;5034942;28;20127;-66
2022/01/22 14:46:52;;;;;;;8.02;1.70;;;6.50;99.90;;;;;;5032998;28;20644;-66
2022/01/22 14:49:22;;;;;;;7.50;1.80;;;6.50;99.90;;;;;;5031772;28;20140;-66
2022/01/22 14:51:47;;;;;;;13.13;2.10;;;6.50;99.90;;;;;;5032157;28;20515;-66
2022/01/22 14:54:15;;;;;;;10.48;2.10;;;6.60;99.90;;;;;;5019257;28;20053;-66
2022/01/22 14:56:42;;;;;;;9.98;2.08;;;6.50;99.90;;;;;;5015226;28;20079;-66
2022/01/22 14:59:08;;;;;;;10.80;2.13;;;6.60;99.90;;;;;;5030293;28;20539;-66
2022/01/22 15:01:34;;;;;;;9.63;2.25;;;6.60;99.90;;;;;;4998899;28;20057;-66
2022/01/22 15:04:00;;;;;;;8.80;1.83;;;6.50;99.90;;;;;;5033044;28;20085;-66
2022/01/22 15:06:26;;;;;;;14.02;1.98;;;6.50;99.90;;;;;;5031060;28;20106;-66
2022/01/22 15:08:53;;;;;;;13.02;1.88;;;6.50;99.90;;;;;;5032050;28;20041;-66
2022/01/22 15:11:20;;;;;;;11.38;1.90;;;6.50;99.90;;;;;;5014633;28;20107;-66
2022/01/22 15:13:46;;;;;;;12.02;2.70;;;6.50;99.90;;;;;;5022406;28;20107;-66
2022/01/22 15:16:16;;;;;;;7.60;1.80;;;6.50;99.90;;;;;;5032044;28;20554;-66